Time;durP1;ratioP1;P1;durP2;ratioP2;P2;SDS_P1;SDS_P2;PMS_P1;PMS_P2;Temp;Humidity;BMP_temperature;BMP_pressure;BME280_temperature;BME280_humidity;BME280_pressure;Samples;Min_cycle;Max_cycle;Signal;HPM_P1;HPM_P2
2022/05/26 00:02:25;;;;;;;1.20;0.47;;;15.20;99.90;;;;;;4318250;28;10000559;-69
2022/05/26 00:04:51;;;;;;;3.88;0.70;;;15.10;99.90;;;;;;5010268;28;20489;-69
2022/05/26 00:07:17;;;;;;;0.95;0.52;;;15.10;99.90;;;;;;5016933;28;20026;-69
2022/05/26 00:09:43;;;;;;;1.88;0.50;;;15.10;99.90;;;;;;5017982;28;20025;-70
2022/05/26 00:12:12;;;;;;;3.15;0.70;;;15.10;99.90;;;;;;5010669;28;20061;-70
2022/05/26 00:14:39;;;;;;;1.67;0.57;;;15.10;99.90;;;;;;4986337;28;20435;-69
2022/05/26 00:17:05;;;;;;;1.80;0.52;;;15.10;99.90;;;;;;5001920;28;20064;-69
2022/05/26 00:19:32;;;;;;;2.88;0.73;;;15.00;99.90;;;;;;5004315;28;20049;-69
2022/05/26 00:21:57;;;;;;;2.47;0.70;;;15.00;99.90;;;;;;5013676;28;20572;-69
2022/05/26 00:24:23;;;;;;;1.75;0.70;;;15.00;99.90;;;;;;5004672;28;20030;-69
2022/05/26 00:26:49;;;;;;;2.13;0.70;;;15.00;99.90;;;;;;4980555;28;20034;-69
2022/05/26 00:29:14;;;;;;;3.13;0.60;;;15.00;99.90;;;;;;5002479;28;20026;-70
2022/05/26 00:31:41;;;;;;;4.30;0.85;;;14.90;99.90;;;;;;4998190;28;20040;-69
2022/05/26 00:34:07;;;;;;;2.42;0.68;;;14.90;99.90;;;;;;5012658;28;20478;-70
2022/05/26 00:36:38;;;;;;;2.17;0.50;;;14.90;99.90;;;;;;4992733;28;20060;-70
2022/05/26 00:39:11;;;;;;;1.77;0.63;;;14.80;99.90;;;;;;5000933;28;20113;-69
2022/05/26 00:41:45;;;;;;;0.60;0.50;;;14.80;99.90;;;;;;5007789;28;20390;-69
2022/05/26 00:44:11;;;;;;;3.80;0.50;;;14.80;99.90;;;;;;5005436;28;20125;-70
2022/05/26 00:46:43;;;;;;;1.27;0.70;;;14.90;99.90;;;;;;4996473;28;20089;-69
2022/05/26 00:49:24;;;;;;;2.47;0.60;;;14.90;99.90;;;;;;4989348;28;20438;-69
2022/05/26 00:51:50;;;;;;;2.28;0.80;;;14.90;99.90;;;;;;5010016;28;20049;-70
2022/05/26 00:54:25;;;;;;;3.03;0.63;;;14.80;99.90;;;;;;5009984;28;20025;-69
2022/05/26 00:57:03;;;;;;;1.48;0.73;;;14.80;99.90;;;;;;4997024;28;20038;-69
2022/05/26 00:59:56;;;;;;;1.48;0.60;;;14.70;99.90;;;;;;4999830;28;20041;-69
2022/05/26 01:02:32;;;;;;;1.90;0.70;;;14.70;99.90;;;;;;5004177;28;20695;-70
2022/05/26 01:05:01;;;;;;;1.85;0.60;;;14.70;99.90;;;;;;4997005;28;20038;-69
2022/05/26 01:07:31;;;;;;;0.98;0.50;;;14.60;99.90;;;;;;5014194;28;20306;-69
2022/05/26 01:09:57;;;;;;;1.00;0.60;;;14.70;99.90;;;;;;4996930;28;21093;-69
2022/05/26 01:12:23;;;;;;;1.05;0.60;;;14.70;99.90;;;;;;5004751;28;20046;-69
2022/05/26 01:14:54;;;;;;;2.97;0.70;;;14.70;99.90;;;;;;5009653;28;20987;-69
2022/05/26 01:17:36;;;;;;;2.22;0.80;;;14.60;99.90;;;;;;5012869;28;20598;-69
2022/05/26 01:20:12;;;;;;;2.45;0.65;;;14.60;99.90;;;;;;5005996;28;20026;-69
2022/05/26 01:22:50;;;;;;;1.70;0.60;;;14.60;99.90;;;;;;5013014;28;20128;-69
2022/05/26 01:25:43;;;;;;;1.40;0.60;;;14.60;99.90;;;;;;5004185;28;20082;-69
2022/05/26 01:28:33;;;;;;;3.03;0.80;;;14.40;99.90;;;;;;5009724;28;20022;-69
2022/05/26 01:31:38;;;;;;;1.67;0.70;;;14.30;99.90;;;;;;5007437;28;20029;-69
2022/05/26 01:34:24;;;;;;;2.22;0.82;;;14.30;99.90;;;;;;5016640;28;20116;-69
2022/05/26 01:36:53;;;;;;;4.93;0.80;;;14.40;99.90;;;;;;5018072;28;20022;-69
2022/05/26 01:39:23;;;;;;;0.80;0.52;;;14.20;99.90;;;;;;5002193;28;20028;-69
2022/05/26 01:42:05;;;;;;;2.95;0.70;;;14.20;99.90;;;;;;5007391;28;20030;-69
2022/05/26 01:44:43;;;;;;;1.38;0.57;;;14.20;99.90;;;;;;5014614;28;20030;-69
2022/05/26 01:47:46;;;;;;;1.67;0.60;;;14.10;99.90;;;;;;5013002;28;20034;-69
2022/05/26 01:50:38;;;;;;;2.15;0.60;;;14.10;99.90;;;;;;5020721;28;20033;-69
2022/05/26 01:53:06;;;;;;;1.70;0.80;;;14.10;99.90;;;;;;5012112;28;20040;-69
2022/05/26 01:55:56;;;;;;;3.35;0.75;;;14.10;99.90;;;;;;5011079;28;20026;-69
2022/05/26 01:58:32;;;;;;;3.45;0.70;;;14.10;99.90;;;;;;5002907;28;20507;-69
2022/05/26 02:01:02;;;;;;;1.67;0.70;;;14.10;99.90;;;;;;5007585;28;20724;-69
2022/05/26 02:03:31;;;;;;;1.60;0.80;;;14.10;99.90;;;;;;5014940;28;20069;-69
2022/05/26 02:06:19;;;;;;;4.68;0.80;;;14.10;99.90;;;;;;5017424;28;20160;-69
2022/05/26 02:09:04;;;;;;;2.63;0.63;;;14.10;99.90;;;;;;5004963;28;20037;-69
2022/05/26 02:11:33;;;;;;;4.40;0.80;;;14.10;99.90;;;;;;5007532;28;20575;-69
2022/05/26 02:14:22;;;;;;;1.35;0.65;;;14.00;99.90;;;;;;5005877;28;20038;-69
2022/05/26 02:17:02;;;;;;;2.67;0.70;;;14.10;99.90;;;;;;5015781;28;20065;-69
2022/05/26 02:19:37;;;;;;;2.65;0.85;;;14.10;99.90;;;;;;5007966;28;20121;-69
2022/05/26 02:22:26;;;;;;;5.40;0.60;;;14.10;99.90;;;;;;5010812;28;20033;-69
2022/05/26 02:24:58;;;;;;;1.65;0.55;;;14.10;99.90;;;;;;5011241;28;20400;-69
2022/05/26 02:27:26;;;;;;;2.58;0.68;;;14.10;99.90;;;;;;5009481;28;20029;-69
2022/05/26 02:29:53;;;;;;;2.72;1.02;;;14.20;99.90;;;;;;4997205;28;20041;-69
2022/05/26 02:32:21;;;;;;;2.88;0.70;;;14.20;99.90;;;;;;5012552;28;20096;-69
2022/05/26 02:34:49;;;;;;;1.50;0.60;;;14.20;99.90;;;;;;5017422;28;20057;-69
2022/05/26 02:37:17;;;;;;;2.70;0.80;;;14.20;99.90;;;;;;5008634;28;20095;-69
2022/05/26 02:39:42;;;;;;;4.38;0.77;;;14.20;99.90;;;;;;5002487;28;20040;-69
2022/05/26 02:42:10;;;;;;;2.13;0.70;;;14.20;99.90;;;;;;5015796;28;20112;-69
2022/05/26 02:44:37;;;;;;;2.78;0.70;;;14.20;99.90;;;;;;5012651;28;20033;-69
2022/05/26 02:47:17;;;;;;;1.92;0.80;;;14.20;99.90;;;;;;5008395;28;20030;-69
2022/05/26 02:50:10;;;;;;;1.92;0.70;;;14.20;99.90;;;;;;5005135;28;20092;-69
2022/05/26 02:52:44;;;;;;;4.38;0.80;;;14.20;99.90;;;;;;5015596;28;20033;-69
2022/05/26 02:55:25;;;;;;;1.80;0.60;;;14.10;99.90;;;;;;5012280;28;20030;-69
2022/05/26 02:58:29;;;;;;;4.50;1.00;;;14.10;99.90;;;;;;5007565;28;20029;-69
2022/05/26 03:01:13;;;;;;;3.72;0.80;;;14.10;99.90;;;;;;4991426;28;20032;-69
2022/05/26 03:03:52;;;;;;;3.72;0.70;;;14.10;99.90;;;;;;5004734;28;20523;-69
2022/05/26 03:06:31;;;;;;;2.55;0.70;;;14.10;99.90;;;;;;5022257;28;20028;-69
2022/05/26 03:09:00;;;;;;;5.03;0.60;;;14.10;99.90;;;;;;5017335;28;20029;-69
2022/05/26 03:11:29;;;;;;;3.42;1.25;;;14.00;99.90;;;;;;5008094;28;20050;-69
2022/05/26 03:13:55;;;;;;;1.67;0.60;;;14.10;99.90;;;;;;5016690;28;20766;-70
2022/05/26 03:16:20;;;;;;;1.63;0.75;;;14.10;99.90;;;;;;5008181;28;20065;-69
2022/05/26 03:18:47;;;;;;;2.58;0.80;;;14.10;99.90;;;;;;5006498;28;20174;-69
2022/05/26 03:21:12;;;;;;;1.98;0.65;;;14.10;99.90;;;;;;5015658;28;20026;-70
2022/05/26 03:23:39;;;;;;;1.70;0.60;;;14.10;99.90;;;;;;5007400;28;20445;-69
2022/05/26 03:26:06;;;;;;;3.28;0.80;;;14.10;99.90;;;;;;5006781;28;20030;-70
2022/05/26 03:28:32;;;;;;;4.60;0.90;;;14.20;99.90;;;;;;5016508;28;20075;-69
2022/05/26 03:30:58;;;;;;;2.10;0.80;;;14.20;99.90;;;;;;5013286;28;20547;-69
2022/05/26 03:33:24;;;;;;;3.03;0.80;;;14.10;99.90;;;;;;5003283;28;20384;-69
2022/05/26 03:41:24;;;;;;;1.58;0.80;;;14.20;99.90;;;;;;5011540;28;20631;-68
2022/05/26 03:43:57;;;;;;;3.20;0.93;;;14.20;99.90;;;;;;5014266;28;20073;-69
2022/05/26 03:46:25;;;;;;;3.20;0.70;;;14.10;99.90;;;;;;5011302;28;20057;-69
2022/05/26 03:48:50;;;;;;;2.42;1.10;;;14.10;99.90;;;;;;5005004;28;20281;-69
2022/05/26 03:51:16;;;;;;;4.78;0.80;;;14.20;99.90;;;;;;5015637;28;20609;-69
2022/05/26 03:53:42;;;;;;;2.58;0.90;;;14.20;99.90;;;;;;5009494;28;20026;-69
2022/05/26 03:56:07;;;;;;;5.32;1.13;;;14.20;99.90;;;;;;5004931;28;20040;-69
2022/05/26 03:58:35;;;;;;;4.13;0.95;;;14.20;99.90;;;;;;5010143;28;20028;-69
2022/05/26 04:01:06;;;;;;;3.28;1.52;;;14.20;99.90;;;;;;5009939;28;20121;-69
2022/05/26 04:03:32;;;;;;;2.65;0.98;;;14.20;99.90;;;;;;5006348;28;20038;-69
2022/05/26 04:05:58;;;;;;;5.03;1.10;;;14.20;99.90;;;;;;5005860;28;20539;-69
2022/05/26 04:08:23;;;;;;;3.67;1.15;;;14.30;99.90;;;;;;5007665;28;20041;-69
2022/05/26 04:10:49;;;;;;;2.92;1.10;;;14.30;99.90;;;;;;5007461;28;20030;-70
2022/05/26 04:13:15;;;;;;;2.60;0.90;;;14.30;99.90;;;;;;5013701;28;20367;-70
2022/05/26 04:15:41;;;;;;;5.50;1.15;;;14.30;99.90;;;;;;5012076;28;20030;-70
2022/05/26 04:18:06;;;;;;;1.75;1.00;;;14.30;99.90;;;;;;5007264;28;20030;-70
2022/05/26 04:20:32;;;;;;;4.03;1.10;;;14.40;99.90;;;;;;5006536;28;20040;-69
2022/05/26 04:22:58;;;;;;;1.90;0.90;;;14.40;99.90;;;;;;5014108;28;20409;-70
2022/05/26 04:25:25;;;;;;;2.50;1.08;;;14.40;99.90;;;;;;5015062;28;20040;-69
2022/05/26 04:27:53;;;;;;;2.25;1.08;;;14.40;99.90;;;;;;5005828;28;20034;-69
2022/05/26 04:30:19;;;;;;;5.43;1.00;;;14.40;99.90;;;;;;4994855;28;20148;-69
2022/05/26 04:32:45;;;;;;;1.60;1.00;;;14.50;99.90;;;;;;5004422;28;20037;-69
2022/05/26 04:35:11;;;;;;;3.15;0.80;;;14.50;99.90;;;;;;5005886;28;20025;-69
2022/05/26 04:37:38;;;;;;;3.40;1.08;;;14.50;99.90;;;;;;5013221;28;20029;-69
2022/05/26 04:40:05;;;;;;;3.03;1.00;;;14.60;99.90;;;;;;5004365;28;20050;-70
2022/05/26 04:42:31;;;;;;;3.55;0.70;;;14.50;99.90;;;;;;5017641;28;20036;-70
2022/05/26 04:44:57;;;;;;;3.83;0.98;;;14.60;99.90;;;;;;5010866;28;20026;-70
2022/05/26 04:47:22;;;;;;;1.90;1.00;;;14.60;99.90;;;;;;5004459;28;20065;-69
2022/05/26 04:49:48;;;;;;;2.22;0.93;;;14.60;99.90;;;;;;5001426;28;20115;-69
2022/05/26 04:52:18;;;;;;;1.80;0.77;;;14.60;99.90;;;;;;5006146;28;20014;-69
2022/05/26 04:54:44;;;;;;;4.45;0.90;;;14.60;99.90;;;;;;5005417;28;20026;-69
2022/05/26 04:57:11;;;;;;;2.35;0.88;;;14.60;99.90;;;;;;5008849;28;20029;-69
2022/05/26 04:59:38;;;;;;;3.85;1.25;;;14.70;99.90;;;;;;5011635;28;20056;-70
2022/05/26 05:02:04;;;;;;;4.55;1.33;;;14.70;99.90;;;;;;5004214;28;20054;-70
2022/05/26 05:04:30;;;;;;;1.83;1.00;;;14.70;99.90;;;;;;5006724;28;20009;-69
2022/05/26 05:06:57;;;;;;;3.90;1.20;;;14.70;99.90;;;;;;5018798;28;20026;-69
2022/05/26 05:09:23;;;;;;;5.20;1.05;;;14.80;99.90;;;;;;5005841;28;20034;-70
2022/05/26 05:11:49;;;;;;;2.10;0.90;;;14.80;99.90;;;;;;5003157;28;20044;-70
2022/05/26 05:14:16;;;;;;;4.80;1.10;;;14.90;99.90;;;;;;5005849;28;20117;-70
2022/05/26 05:16:43;;;;;;;1.85;0.70;;;14.90;99.90;;;;;;5001323;28;20022;-69
2022/05/26 05:19:15;;;;;;;2.30;0.90;;;14.90;99.90;;;;;;5009700;28;20767;-70
2022/05/26 05:21:58;;;;;;;4.20;0.85;;;14.90;99.90;;;;;;5004454;28;20156;-70
2022/05/26 05:24:25;;;;;;;3.33;1.00;;;15.00;99.90;;;;;;5007554;28;20017;-70
2022/05/26 05:26:56;;;;;;;3.58;0.90;;;15.00;99.90;;;;;;5011916;28;20030;-69
2022/05/26 05:29:24;;;;;;;2.60;0.90;;;15.10;99.90;;;;;;5015034;28;20037;-69
2022/05/26 05:31:58;;;;;;;2.95;1.00;;;15.10;99.90;;;;;;5015424;28;20072;-69
2022/05/26 05:34:35;;;;;;;4.70;1.48;;;15.20;99.90;;;;;;5026768;28;20056;-70
2022/05/26 05:37:01;;;;;;;1.17;0.80;;;15.20;99.90;;;;;;5013314;28;20044;-70
2022/05/26 05:39:27;;;;;;;1.88;0.70;;;15.20;99.90;;;;;;5011412;28;20041;-69
2022/05/26 05:41:54;;;;;;;1.73;1.00;;;15.30;99.90;;;;;;5016376;28;20441;-70
2022/05/26 05:44:20;;;;;;;2.05;0.90;;;15.40;99.90;;;;;;5008868;28;20038;-69
2022/05/26 05:46:57;;;;;;;3.42;0.70;;;15.50;99.90;;;;;;5013097;28;20026;-70
2022/05/26 05:49:31;;;;;;;1.27;0.90;;;15.60;99.90;;;;;;5005315;28;20027;-70
2022/05/26 05:52:03;;;;;;;5.03;1.13;;;15.80;99.90;;;;;;5003118;28;20430;-70
2022/05/26 05:54:31;;;;;;;3.38;0.95;;;15.90;99.90;;;;;;5000071;28;20115;-69
2022/05/26 05:56:57;;;;;;;2.20;0.90;;;16.00;99.90;;;;;;4286907;28;10001165;-69
2022/05/26 05:59:24;;;;;;;3.30;0.80;;;16.10;99.90;;;;;;4944758;28;20051;-70
2022/05/26 06:01:49;;;;;;;3.10;0.90;;;16.10;99.90;;;;;;4961540;28;20149;-69
2022/05/26 06:04:15;;;;;;;3.78;0.73;;;16.20;99.90;;;;;;4961526;28;21334;-70
2022/05/26 06:06:43;;;;;;;1.98;0.85;;;16.30;99.90;;;;;;4949765;28;20030;-70
2022/05/26 06:09:13;;;;;;;4.88;1.15;;;16.30;99.90;;;;;;4953191;28;20741;-70
2022/05/26 06:11:40;;;;;;;2.28;0.85;;;16.30;99.90;;;;;;4950212;28;20194;-70
2022/05/26 06:14:06;;;;;;;1.05;0.80;;;16.30;99.90;;;;;;4951659;28;21251;-72
2022/05/26 06:16:32;;;;;;;1.45;0.73;;;16.30;99.90;;;;;;4968441;28;20041;-70
2022/05/26 06:18:58;;;;;;;2.20;0.98;;;16.40;99.90;;;;;;4971653;28;20054;-70
2022/05/26 06:21:24;;;;;;;4.47;0.90;;;16.40;99.90;;;;;;4967779;28;21159;-70
2022/05/26 06:23:56;;;;;;;3.83;1.00;;;16.40;99.90;;;;;;4969034;28;20050;-70
2022/05/26 06:26:26;;;;;;;2.05;0.90;;;16.40;99.90;;;;;;4965674;28;20060;-69
2022/05/26 06:31:37;;;;;;;1.67;0.80;;;16.50;99.90;;;;;;4974329;28;20041;-70
2022/05/26 06:39:33;;;;;;;1.90;0.80;;;16.90;99.90;;;;;;4978896;28;20060;-69
2022/05/26 06:42:08;;;;;;;1.27;0.68;;;17.10;99.90;;;;;;4983817;28;20030;-70
2022/05/26 06:44:38;;;;;;;0.85;0.63;;;17.20;99.90;;;;;;4977977;28;20119;-69
2022/05/26 06:47:05;;;;;;;1.98;0.60;;;17.30;99.90;;;;;;4980186;28;20118;-70
2022/05/26 06:49:34;;;;;;;2.95;0.70;;;17.30;99.90;;;;;;4971053;28;20555;-70
2022/05/26 06:51:59;;;;;;;2.97;0.65;;;17.40;99.90;;;;;;4978611;28;20134;-70
2022/05/26 06:54:28;;;;;;;1.63;0.50;;;17.40;99.90;;;;;;4981543;28;20165;-70
2022/05/26 06:56:54;;;;;;;0.85;0.60;;;17.70;99.90;;;;;;4977315;28;20038;-70
2022/05/26 06:59:20;;;;;;;1.02;0.65;;;17.70;99.90;;;;;;4976053;28;20029;-70
2022/05/26 07:01:45;;;;;;;1.35;0.88;;;18.20;99.90;;;;;;4979353;28;20046;-70
2022/05/26 07:04:11;;;;;;;0.93;0.70;;;18.30;99.90;;;;;;4981439;28;20580;-71
2022/05/26 07:06:36;;;;;;;1.77;0.68;;;18.70;99.90;;;;;;4977226;28;20282;-71
2022/05/26 07:09:02;;;;;;;2.85;0.82;;;19.20;99.90;;;;;;4971042;28;20034;-73
2022/05/26 07:11:28;;;;;;;1.33;0.60;;;19.50;99.90;;;;;;4981831;28;20046;-75
2022/05/26 07:13:54;;;;;;;2.30;0.80;;;19.70;99.90;;;;;;4977983;28;20078;-75
2022/05/26 07:16:19;;;;;;;3.35;0.80;;;19.90;99.90;;;;;;4978906;28;20034;-75
2022/05/26 07:18:45;;;;;;;1.15;0.52;;;19.80;99.90;;;;;;4977096;28;20046;-75
2022/05/26 07:21:12;;;;;;;2.47;0.65;;;19.60;99.90;;;;;;4982218;28;20063;-76
2022/05/26 07:23:37;;;;;;;2.00;0.57;;;19.30;99.90;;;;;;4979817;28;20612;-76
2022/05/26 07:26:08;;;;;;;3.53;0.55;;;19.20;99.90;;;;;;4982994;28;20025;-77
2022/05/26 07:28:35;;;;;;;2.20;0.80;;;19.20;99.90;;;;;;4977503;28;20034;-76
2022/05/26 07:31:01;;;;;;;1.42;0.50;;;19.20;99.90;;;;;;4980772;28;20749;-76
2022/05/26 07:33:27;;;;;;;1.88;0.70;;;19.20;99.90;;;;;;4979911;28;20034;-76
2022/05/26 07:35:53;;;;;;;0.98;0.68;;;19.20;99.90;;;;;;4986636;28;20397;-75
2022/05/26 07:41:18;;;;;;;0.88;0.60;;;19.30;99.90;;;;;;4980150;28;20077;-75
2022/05/26 07:43:52;;;;;;;2.33;0.70;;;19.40;99.90;;;;;;4975606;28;20402;-75
2022/05/26 07:46:18;;;;;;;3.25;1.02;;;19.40;99.90;;;;;;4980315;28;20149;-76
2022/05/26 07:48:44;;;;;;;5.45;1.08;;;19.40;99.90;;;;;;4977852;28;20495;-75
2022/05/26 07:51:10;;;;;;;1.88;1.00;;;19.30;99.90;;;;;;4974867;28;20049;-75
2022/05/26 07:53:35;;;;;;;2.63;1.20;;;19.30;99.90;;;;;;4975990;28;20733;-75
2022/05/26 07:56:02;;;;;;;3.67;1.08;;;19.10;99.90;;;;;;4983047;28;20331;-75
2022/05/26 07:58:28;;;;;;;1.90;1.08;;;18.90;99.90;;;;;;4980148;28;20485;-75
2022/05/26 08:00:54;;;;;;;4.63;1.17;;;18.80;99.90;;;;;;4978446;28;20034;-75
2022/05/26 08:03:21;;;;;;;6.03;1.50;;;18.60;99.90;;;;;;4981346;28;20033;-75
2022/05/26 08:05:46;;;;;;;3.60;1.15;;;18.40;99.90;;;;;;4979574;28;20495;-75
2022/05/26 08:08:12;;;;;;;5.85;1.15;;;18.20;99.90;;;;;;4981282;28;20026;-75
2022/05/26 08:10:39;;;;;;;3.22;1.10;;;18.00;99.90;;;;;;4977330;28;20037;-75
2022/05/26 08:13:06;;;;;;;2.35;1.08;;;17.90;99.90;;;;;;4981774;28;20029;-75
2022/05/26 08:15:32;;;;;;;1.40;0.98;;;17.70;99.90;;;;;;4982534;28;20507;-74
2022/05/26 08:17:58;;;;;;;2.13;1.00;;;17.50;99.90;;;;;;4979456;28;20482;-74
2022/05/26 08:20:24;;;;;;;1.90;1.00;;;17.40;99.90;;;;;;4978382;28;20030;-74
2022/05/26 08:22:49;;;;;;;2.05;0.82;;;17.40;99.90;;;;;;4978494;28;20040;-75
2022/05/26 08:25:15;;;;;;;1.73;1.00;;;17.50;99.90;;;;;;4977550;28;20396;-75
2022/05/26 08:27:41;;;;;;;1.02;0.90;;;17.80;99.90;;;;;;4981596;28;20108;-75
2022/05/26 08:30:07;;;;;;;1.05;0.85;;;17.90;99.90;;;;;;4984782;28;20037;-75
2022/05/26 08:32:33;;;;;;;1.55;1.00;;;18.20;99.90;;;;;;4981562;28;22262;-75
2022/05/26 08:35:01;;;;;;;1.10;0.90;;;18.40;99.90;;;;;;4978511;28;20401;-76
2022/05/26 08:37:27;;;;;;;2.97;0.98;;;18.60;99.90;;;;;;4979555;28;20041;-75
2022/05/26 08:39:53;;;;;;;2.15;0.85;;;18.80;99.90;;;;;;4978981;28;20034;-75
2022/05/26 08:42:27;;;;;;;3.35;1.02;;;18.80;99.90;;;;;;4978138;28;20128;-76
2022/05/26 08:44:55;;;;;;;1.85;0.73;;;18.70;99.90;;;;;;4981039;28;20096;-76
2022/05/26 08:47:32;;;;;;;3.67;1.05;;;18.60;99.90;;;;;;4981186;28;20037;-75
2022/05/26 08:49:58;;;;;;;2.33;0.90;;;;;;;;;;4979602;28;20182;-76
2022/05/26 08:52:32;;;;;;;1.02;0.90;;;18.30;99.90;;;;;;4976983;28;20038;-76
2022/05/26 08:55:07;;;;;;;1.80;1.13;;;18.20;99.90;;;;;;4981534;28;20037;-76
2022/05/26 08:57:38;;;;;;;2.17;1.38;;;18.20;99.90;;;;;;4978187;28;20120;-76
2022/05/26 09:00:06;;;;;;;3.00;1.10;;;18.40;99.90;;;;;;4978331;28;20053;-76
2022/05/26 09:02:37;;;;;;;0.90;0.90;;;18.80;99.90;;;;;;4979955;28;20092;-76
2022/05/26 09:05:07;;;;;;;1.77;1.02;;;19.10;99.90;;;;;;4977842;28;20297;-76
2022/05/26 09:13:12;;;;;;;1.00;0.70;;;19.20;99.90;;;;;;4981725;28;20454;-75
2022/05/26 09:15:40;;;;;;;4.57;1.08;;;19.10;99.90;;;;;;4977127;28;20478;-75
2022/05/26 09:18:17;;;;;;;2.25;1.00;;;19.00;99.90;;;;;;4981744;28;20072;-75
2022/05/26 09:20:46;;;;;;;1.75;1.00;;;18.90;99.90;;;;;;4982401;28;20038;-75
2022/05/26 09:23:21;;;;;;;2.67;1.05;;;18.80;99.90;;;;;;4982007;28;20286;-76
2022/05/26 09:25:50;;;;;;;3.05;1.20;;;19.00;99.90;;;;;;4984104;28;20038;-76
2022/05/26 09:28:30;;;;;;;2.35;1.30;;;19.20;99.90;;;;;;4976162;28;20315;-76
2022/05/26 09:31:09;;;;;;;3.00;1.50;;;19.50;99.90;;;;;;4979825;28;20599;-76
2022/05/26 09:33:34;;;;;;;3.95;1.38;;;19.60;99.90;;;;;;4979615;28;20369;-76
2022/05/26 09:36:28;;;;;;;3.28;1.45;;;19.40;99.90;;;;;;4977928;28;20323;-76
2022/05/26 09:38:54;;;;;;;3.00;1.48;;;19.30;99.90;;;;;;4979967;28;20026;-76
2022/05/26 09:41:19;;;;;;;4.00;1.55;;;19.10;99.90;;;;;;4978882;28;20212;-75
2022/05/26 09:43:51;;;;;;;2.03;1.50;;;18.90;99.90;;;;;;4976872;28;21688;-76
2022/05/26 09:46:17;;;;;;;2.60;1.83;;;18.70;99.90;;;;;;4981664;28;20084;-76
2022/05/26 09:48:46;;;;;;;2.85;1.75;;;18.50;99.90;;;;;;4975664;28;20268;-76
2022/05/26 09:51:27;;;;;;;4.40;2.20;;;18.30;99.90;;;;;;4978793;28;20243;-76
2022/05/26 09:53:55;;;;;;;3.72;2.05;;;18.20;99.90;;;;;;4983305;28;20885;-76
2022/05/26 09:56:32;;;;;;;2.83;2.00;;;18.20;99.90;;;;;;4979549;28;20212;-76
2022/05/26 09:58:58;;;;;;;4.68;1.90;;;18.10;99.90;;;;;;4980772;28;20849;-76
2022/05/26 10:01:27;;;;;;;3.72;2.10;;;18.20;99.90;;;;;;4984885;28;20401;-76
2022/05/26 10:04:21;;;;;;;3.40;1.80;;;18.30;99.90;;;;;;4982280;28;20124;-76
2022/05/26 10:07:04;;;;;;;3.85;1.80;;;18.60;99.90;;;;;;4988042;28;20031;-77
2022/05/26 10:09:48;;;;;;;4.97;1.92;;;19.10;99.90;;;;;;4979024;28;20045;-76
2022/05/26 10:12:17;;;;;;;4.53;1.90;;;19.50;99.90;;;;;;4981914;28;20046;-77
2022/05/26 10:15:16;;;;;;;7.07;1.90;;;19.60;99.90;;;;;;4986508;28;20393;-76
2022/05/26 10:18:18;;;;;;;6.05;2.30;;;19.40;99.90;;;;;;4951815;28;20564;-76
2022/05/26 10:20:55;;;;;;;5.35;2.10;;;19.20;99.90;;;;;;4981018;28;22892;-76
2022/05/26 10:23:45;;;;;;;5.45;2.75;;;19.00;99.90;;;;;;4980205;28;20026;-76
2022/05/26 10:26:39;;;;;;;4.90;2.45;;;18.70;99.90;;;;;;4983956;28;20499;-76
2022/05/26 10:29:23;;;;;;;4.15;2.63;;;18.40;99.90;;;;;;4979701;28;20042;-76
2022/05/26 10:32:05;;;;;;;4.13;2.38;;;18.40;99.90;;;;;;4985070;28;20117;-76
2022/05/26 10:34:52;;;;;;;5.28;2.83;;;18.40;99.90;;;;;;4982782;28;20092;-76
2022/05/26 10:37:59;;;;;;;4.35;3.03;;;18.50;99.90;;;;;;4982316;28;20108;-76
2022/05/26 10:40:31;;;;;;;4.28;3.40;;;18.60;99.90;;;;;;4946780;28;20042;-74
2022/05/26 10:43:25;;;;;;;8.15;3.50;;;19.00;99.90;;;;;;4979883;28;20056;-74
2022/05/26 10:45:53;;;;;;;;;;;19.30;99.90;;;;;;4980694;28;20144;-74
2022/05/26 10:48:19;;;;;;;4.97;3.00;;;;;;;;;;4983742;28;19922;-74
2022/05/26 10:51:02;;;;;;;5.15;3.20;;;19.60;99.90;;;;;;4978129;28;20121;-75
2022/05/26 10:54:19;;;;;;;3.90;2.42;;;19.90;99.90;;;;;;4987687;28;20030;-74
2022/05/26 10:57:04;;;;;;;4.35;2.78;;;20.10;99.90;;;;;;4280945;28;10000898;-76
2022/05/26 11:00:21;;;;;;;6.55;3.10;;;20.50;99.90;;;;;;4981686;28;20042;-75
2022/05/26 11:03:11;;;;;;;5.15;2.08;;;21.00;99.90;;;;;;4933105;28;20525;-76
2022/05/26 11:05:40;;;;;;;4.38;2.15;;;21.50;99.90;;;;;;4987581;28;20029;-73
2022/05/26 11:08:33;;;;;;;7.00;1.95;;;21.50;99.90;;;;;;4983448;28;20163;-76
2022/05/26 11:11:17;;;;;;;2.95;1.70;;;21.60;99.90;;;;;;4981497;28;20030;-77
2022/05/26 11:14:01;;;;;;;3.42;1.45;;;21.80;98.70;;;;;;4988329;28;20473;-75
2022/05/26 11:19:56;;;;;;;3.35;1.92;;;22.10;98.10;;;;;;4982065;28;20108;-73
2022/05/26 11:22:22;;;;;;;3.75;1.83;;;22.40;98.00;;;;;;4981240;28;20026;-73
2022/05/26 11:24:49;;;;;;;4.43;1.80;;;22.40;94.60;;;;;;4985053;28;20476;-73
2022/05/26 11:27:24;;;;;;;4.32;1.77;;;22.30;93.70;;;;;;4984844;28;20112;-72
2022/05/26 11:29:56;;;;;;;2.75;1.60;;;22.10;91.40;;;;;;4982260;28;20069;-73
2022/05/26 11:38:29;;;;;;;3.78;1.50;;;21.80;92.30;;;;;;4984488;28;20060;-72
2022/05/26 11:41:01;;;;;;;3.67;1.90;;;22.30;91.00;;;;;;4977589;28;20038;-72
2022/05/26 11:43:30;;;;;;;4.07;1.90;;;22.40;88.40;;;;;;4980091;28;20525;-74
2022/05/26 11:45:58;;;;;;;4.32;1.50;;;22.60;89.80;;;;;;4981227;28;20041;-73
2022/05/26 11:48:32;;;;;;;4.72;1.63;;;22.70;89.40;;;;;;4977817;28;20033;-74
2022/05/26 11:51:00;;;;;;;2.78;1.60;;;22.90;87.30;;;;;;4985126;28;20261;-73
2022/05/26 11:53:59;;;;;;;4.07;1.83;;;23.20;86.30;;;;;;4981641;28;20030;-72
2022/05/26 11:56:28;;;;;;;2.95;1.70;;;23.30;86.90;;;;;;4979841;28;20073;-73
2022/05/26 11:59:23;;;;;;;2.97;1.50;;;23.20;85.40;;;;;;4979281;28;20026;-73
2022/05/26 12:02:07;;;;;;;4.70;1.90;;;23.40;81.70;;;;;;4983043;28;20033;-73
2022/05/26 12:04:39;;;;;;;;;;;23.70;81.70;;;;;;4979139;28;20097;-74
2022/05/26 12:07:12;;;;;;;3.65;2.00;;;24.00;77.60;;;;;;4983944;28;19920;-75
2022/05/26 12:09:52;;;;;;;7.40;1.70;;;24.20;78.60;;;;;;4981436;28;20850;-74
2022/05/26 12:12:17;;;;;;;2.80;1.20;;;24.10;74.00;;;;;;4981944;28;20062;-73
2022/05/26 12:14:47;;;;;;;2.28;1.33;;;23.70;72.20;;;;;;4982501;28;20029;-74
2022/05/26 12:17:37;;;;;;;2.17;1.45;;;23.40;74.10;;;;;;4982007;28;20030;-74
2022/05/26 12:20:11;;;;;;;5.20;1.70;;;23.30;77.70;;;;;;4979177;28;20048;-74
2022/05/26 12:22:50;;;;;;;3.17;1.40;;;23.30;78.10;;;;;;4982546;28;20037;-74
2022/05/26 12:25:34;;;;;;;4.05;1.40;;;23.30;76.90;;;;;;4979257;28;20026;-74
2022/05/26 12:28:29;;;;;;;4.03;1.67;;;23.00;74.50;;;;;;4982335;28;20211;-74
2022/05/26 12:30:55;;;;;;;4.05;1.60;;;22.60;77.10;;;;;;4982402;28;20096;-74
2022/05/26 12:33:20;;;;;;;3.78;1.85;;;22.30;80.20;;;;;;4982417;28;20026;-73
2022/05/26 12:36:33;;;;;;;3.45;1.70;;;22.00;82.80;;;;;;4980973;28;20034;-74
2022/05/26 12:39:14;;;;;;;4.53;2.05;;;21.60;86.10;;;;;;4904553;29;20628;-74
2022/05/26 12:41:56;;;;;;;3.42;1.92;;;21.40;90.70;;;;;;4902754;29;20705;-74
2022/05/26 12:44:22;;;;;;;5.82;1.83;;;21.20;88.30;;;;;;4961612;28;20128;-75
2022/05/26 12:47:16;;;;;;;4.38;2.03;;;21.40;90.00;;;;;;4981583;28;20025;-74
2022/05/26 12:50:03;;;;;;;5.15;2.08;;;21.60;87.80;;;;;;4960443;28;20049;-74
2022/05/26 12:52:40;;;;;;;2.90;1.70;;;21.60;87.10;;;;;;4980683;28;20261;-74
2022/05/26 12:55:29;;;;;;;4.10;1.80;;;21.90;89.30;;;;;;4981025;28;20061;-74
2022/05/26 12:58:12;;;;;;;7.20;1.90;;;22.20;88.00;;;;;;4979695;28;20033;-74
2022/05/26 13:01:01;;;;;;;4.50;1.85;;;22.20;86.40;;;;;;4984550;28;20033;-75
2022/05/26 13:03:38;;;;;;;3.35;1.65;;;22.00;85.30;;;;;;4981959;28;20033;-74
2022/05/26 13:06:07;;;;;;;3.78;2.03;;;21.80;85.40;;;;;;4982418;28;20132;-74
2022/05/26 13:08:54;;;;;;;4.30;1.83;;;21.60;87.80;;;;;;4976853;28;20033;-74
2022/05/26 13:11:26;;;;;;;4.90;2.03;;;21.30;86.70;;;;;;4982959;28;20038;-74
2022/05/26 13:13:53;;;;;;;5.97;2.25;;;21.00;87.60;;;;;;4976063;28;20519;-75
2022/05/26 13:16:27;;;;;;;4.85;2.05;;;20.80;89.80;;;;;;4978889;28;20109;-75
2022/05/26 13:19:13;;;;;;;4.20;2.17;;;20.70;90.40;;;;;;4984559;28;20041;-74
2022/05/26 13:21:43;;;;;;;4.25;2.17;;;20.60;91.20;;;;;;4979042;28;20034;-74
2022/05/26 13:24:18;;;;;;;6.03;2.10;;;20.50;91.70;;;;;;4981479;28;20029;-75
2022/05/26 13:26:45;;;;;;;4.28;1.88;;;20.30;94.40;;;;;;4977743;28;20029;-74
2022/05/26 13:29:13;;;;;;;6.75;2.30;;;20.10;95.50;;;;;;4976261;28;20144;-73
2022/05/26 13:34:28;;;;;;;5.53;2.13;;;;;;;;;;4982754;28;20052;-73
2022/05/26 13:36:53;;;;;;;6.38;2.10;;;20.00;94.10;;;;;;4983611;28;20124;-74
2022/05/26 13:39:25;;;;;;;8.25;1.92;;;20.00;94.10;;;;;;4980157;28;20543;-75
2022/05/26 13:41:53;;;;;;;6.38;2.10;;;20.10;94.00;;;;;;4984284;28;20033;-74
2022/05/26 13:44:21;;;;;;;3.90;1.80;;;20.30;93.80;;;;;;4985492;28;20038;-73
2022/05/26 13:46:51;;;;;;;5.82;2.10;;;20.60;93.30;;;;;;4983865;28;20034;-74
2022/05/26 13:49:33;;;;;;;5.55;2.13;;;21.00;93.00;;;;;;4982238;28;20039;-73
2022/05/26 13:52:21;;;;;;;4.25;1.90;;;21.40;92.70;;;;;;4986848;28;20060;-74